Stations météo

réclame
Mon MeteoGroup
Melle, Belgique (6434): Température de l'air & dewpoint: 13.06.2019 11:00:00 - 19.06.2019 11:00:00 (CEST)Melle, Belgique (6434): Vitesse du vent & gusts: 13.06.2019 11:00:00 - 19.06.2019 11:00:00 (CEST)Melle, Belgique (6434): Direction du vent: 13.06.2019 11:00:00 - 19.06.2019 11:00:00 (CEST)Melle, Belgique (6434): reduced air pressure: 13.06.2019 11:00:00 - 19.06.2019 11:00:00 (CEST)Melle, Belgique (6434): Ensoleillement: 13.06.2019 11:00:00 - 19.06.2019 11:00:00 (CEST)Melle, Belgique (6434): Quantités de précipitations: 13.06.2019 11:00:00 - 19.06.2019 11:00:00 (CEST)
Date & Time tt [°C] td [°C] ff [km/h] ff [knt] fx [km/h] fx [knt] dd ppp [hPa] sd [min] rr [mm]
19.06.2019 11:00:00 - - - - - - - - - -
19.06.2019 10:00:00 18,4 14,2 10 5 20 11 ESE 1007,3 16 0,0
19.06.2019 09:00:00 17,5 13,7 10 6 18 10 E 1007,4 14 0,0
19.06.2019 08:00:00 17,4 14,1 7 4 29 16 NE 1006,9 0 0,1
19.06.2019 07:00:00 17,8 14,2 16 8 22 12 N 1007,6 5 0,9
19.06.2019 06:00:00 18,4 13,6 14 8 21 12 N 1007,6 0 0,0
19.06.2019 05:00:00 18,7 15,0 10 6 38 21 NW 1008,2 0 0,0
19.06.2019 04:00:00 17,3 15,0 4 2 10 5 NE 1008,0 0 0,0
19.06.2019 03:00:00 17,2 15,5 7 4 7 4 E 1008,5 0 0,0
19.06.2019 02:00:00 16,9 14,9 4 2 6 3 E 1009,0 0 0,0
19.06.2019 01:00:00 17,1 14,9 4 2 6 3 ESE 1009,7 0 0,0
19.06.2019 00:00:00 19,4 16,0 0 0 11 6 N 1010,4 0 0,0
18.06.2019 23:00:00 21,1 16,4 6 4 14 8 E 1010,7 0 0,0
18.06.2019 22:00:00 22,0 17,0 5 3 10 5 ENE 1010,9 0 0,0
18.06.2019 21:00:00 24,2 16,9 0 0 11 6 N 1011,0 0 0,0
18.06.2019 20:00:00 25,5 14,3 4 2 12 6 E 1011,2 9 0,0
18.06.2019 19:00:00 26,1 14,0 7 4 19 11 E 1011,6 38 0,0
18.06.2019 18:00:00 26,7 13,9 10 5 16 9 E 1011,8 60 0,0
18.06.2019 17:00:00 27,3 13,2 8 4 17 9 ESE 1012,5 60 0,0
18.06.2019 16:00:00 26,8 12,8 5 3 15 8 SSW 1013,2 60 0,0
18.06.2019 15:00:00 26,2 13,9 7 4 16 9 ESE 1013,8 60 0,0
18.06.2019 14:00:00 25,8 14,5 4 2 19 10 NNW 1014,3 60 0,0
18.06.2019 13:00:00 24,4 15,1 6 3 13 7 ENE 1014,7 60 0,0
18.06.2019 12:00:00 22,9 14,7 6 3 13 7 ENE 1015,1 60 0,0
18.06.2019 11:00:00 21,3 14,6 6 3 12 6 NE 1015,5 60 0,0
18.06.2019 10:00:00 20,0 13,3 8 4 13 7 NE 1015,9 60 0,0
18.06.2019 09:00:00 18,4 12,9 7 4 10 5 NNE 1016,1 60 0,0
18.06.2019 08:00:00 17,0 12,6 4 2 10 5 N 1016,2 60 0,0
18.06.2019 07:00:00 13,7 12,2 4 2 5 3 SW 1016,4 37 0,0
18.06.2019 06:00:00 12,9 11,5 4 2 10 5 W 1016,4 0 0,0
18.06.2019 05:00:00 12,9 11,5 4 2 5 3 W 1016,5 0 0,0
18.06.2019 04:00:00 13,7 12,0 0 0 10 6 N 1016,7 0 0,0
18.06.2019 03:00:00 14,7 12,9 8 4 12 7 W 1017,0 0 0,0
18.06.2019 02:00:00 15,3 13,1 4 2 8 5 NW 1017,2 0 0,0
18.06.2019 01:00:00 17,3 14,0 6 3 9 5 N 1017,4 0 0,0
18.06.2019 00:00:00 17,5 14,7 5 3 11 6 N 1017,4 0 0,0
17.06.2019 23:00:00 18,0 14,5 5 3 11 6 NNE 1017,2 0 0,0
17.06.2019 22:00:00 19,3 14,5 0 0 7 4 N 1017,1 7 0,0
17.06.2019 21:00:00 23,5 13,3 4 2 13 7 SW 1017,1 60 0,0
17.06.2019 20:00:00 24,4 12,2 7 4 16 9 SW 1017,3 60 0,0
17.06.2019 19:00:00 24,6 12,7 9 5 18 10 S 1017,6 54 0,0
17.06.2019 18:00:00 24,6 13,5 11 6 21 11 SW 1017,9 54 0,0
17.06.2019 17:00:00 24,5 13,2 10 5 21 11 WSW 1018,3 57 0,0
17.06.2019 16:00:00 23,9 13,4 10 5 22 12 SSW 1018,8 54 0,0
17.06.2019 15:00:00 23,8 13,8 10 6 22 12 SSW 1019,3 53 0,0
17.06.2019 14:00:00 22,4 12,6 11 6 22 12 SW 1019,4 53 0,0
17.06.2019 13:00:00 22,5 13,0 10 6 22 12 S 1019,9 50 0,0
17.06.2019 12:00:00 21,4 12,8 12 6 25 13 SW 1020,2 47 0,0
17.06.2019 11:00:00 21,3 12,9 11 6 21 11 S 1020,6 60 0,0
17.06.2019 10:00:00 20,4 13,4 11 6 17 9 SSW 1020,7 60 0,0
17.06.2019 09:00:00 19,0 13,9 8 4 16 9 S 1020,7 60 0,0
17.06.2019 08:00:00 17,1 13,5 7 4 16 9 S 1020,6 60 0,0
17.06.2019 07:00:00 14,7 12,4 8 4 13 7 SSE 1020,8 51 0,0
17.06.2019 06:00:00 13,0 11,7 5 3 8 4 ESE 1020,5 0 0,0
17.06.2019 05:00:00 12,9 11,8 5 3 8 4 E 1020,7 0 0,0
17.06.2019 04:00:00 13,1 11,8 5 3 9 5 E 1020,9 0 0,0
17.06.2019 03:00:00 12,0 10,8 0 0 4 2 N 1021,2 0 0,0
17.06.2019 02:00:00 12,5 11,1 0 0 3 2 N 1021,4 0 0,0
17.06.2019 01:00:00 13,6 11,9 4 2 10 5 E 1021,3 0 0,0
17.06.2019 00:00:00 14,2 12,2 4 2 6 3 WSW 1021,4 0 0,0
16.06.2019 23:00:00 15,7 12,6 4 2 7 4 SW 1021,2 0 0,0
16.06.2019 22:00:00 18,0 13,0 5 3 14 8 WSW 1020,9 46 0,0
16.06.2019 21:00:00 19,3 13,2 10 5 16 9 SSW 1021,0 2 0,0
16.06.2019 20:00:00 20,0 13,2 7 4 17 9 SW 1020,7 12 0,0
16.06.2019 19:00:00 20,2 13,0 12 6 25 14 SSW 1020,6 46 0,0
16.06.2019 18:00:00 20,8 13,1 8 5 37 20 WSW 1020,7 49 0,0
16.06.2019 17:00:00 20,4 11,9 16 8 30 16 SSW 1020,6 47 0,0
16.06.2019 16:00:00 20,8 12,2 21 11 30 16 SSW 1020,6 41 0,0
16.06.2019 15:00:00 20,7 11,7 16 9 29 16 WSW 1020,5 41 0,0
16.06.2019 14:00:00 20,0 11,8 18 10 38 20 SW 1020,4 53 0,0
16.06.2019 13:00:00 18,9 11,7 22 12 36 19 WSW 1020,7 53 0,0
16.06.2019 12:00:00 17,2 12,7 11 6 26 14 WSW 1020,6 17 0,0
16.06.2019 11:00:00 16,5 12,1 14 8 29 16 WSW 1020,4 19 0,0
16.06.2019 10:00:00 16,1 12,2 16 9 31 17 WSW 1020,0 31 0,0
16.06.2019 09:00:00 15,5 11,9 16 9 30 16 WSW 1019,6 28 0,0
16.06.2019 08:00:00 14,8 11,5 14 8 25 13 SSW 1019,0 11 0,0
16.06.2019 07:00:00 13,8 10,8 14 8 23 13 SSW 1018,7 29 0,0
16.06.2019 06:00:00 12,5 9,9 8 5 14 7 S 1018,6 0 0,0
16.06.2019 05:00:00 13,0 9,9 8 4 14 8 S 1018,3 0 0,0
16.06.2019 04:00:00 13,7 10,1 10 5 16 9 SSW 1018,0 0 0,0
16.06.2019 03:00:00 14,0 10,2 8 5 12 6 SSW 1017,9 0 0,0
16.06.2019 02:00:00 14,0 10,7 4 2 10 5 SSE 1017,6 0 0,0
16.06.2019 01:00:00 14,0 11,5 5 3 9 5 SSW 1017,3 0 0,0
16.06.2019 00:00:00 15,5 13,2 6 3 9 5 S 1016,9 0 0,0
15.06.2019 23:00:00 16,6 13,4 4 2 9 5 WNW 1016,7 0 0,0
15.06.2019 22:00:00 17,1 12,9 5 3 10 6 NE 1016,3 0 0,0
15.06.2019 21:00:00 17,5 12,7 7 4 11 6 E 1015,9 9 0,0
15.06.2019 20:00:00 18,8 12,6 7 4 12 6 ENE 1015,9 40 0,0
15.06.2019 19:00:00 18,6 12,4 6 4 18 10 NNE 1015,9 29 0,0
15.06.2019 18:00:00 18,8 13,2 13 7 22 12 N 1015,8 41 0,0
15.06.2019 17:00:00 19,1 13,1 16 9 29 16 NW 1015,7 48 0,0
15.06.2019 16:00:00 20,9 12,3 8 4 13 7 WSW 1015,1 59 0,0
15.06.2019 15:00:00 19,2 12,3 6 3 19 11 SSW 1015,4 43 0,0
15.06.2019 14:00:00 19,2 12,8 4 2 13 7 S 1015,6 60 0,0
15.06.2019 13:00:00 17,3 13,7 4 2 16 9 NNW 1015,1 37 0,0
15.06.2019 12:00:00 15,0 13,5 6 3 14 7 W 1014,9 1 0,1
15.06.2019 11:00:00 13,8 12,6 8 4 15 8 WNW 1014,4 0 4,6
15.06.2019 10:00:00 13,6 12,4 9 5 14 8 WSW 1013,9 0 0,4
15.06.2019 09:00:00 13,2 12,1 4 2 13 7 WNW 1013,1 0 0,0
15.06.2019 08:00:00 13,0 11,9 11 6 16 8 W 1012,5 0 0,5
15.06.2019 07:00:00 13,1 12,1 6 3 16 8 W 1012,0 0 1,1
15.06.2019 06:00:00 12,9 11,9 13 7 17 9 N 1011,9 0 1,4
15.06.2019 05:00:00 12,8 11,6 7 4 17 9 N 1012,1 0 4,2
15.06.2019 04:00:00 12,9 11,3 9 5 19 10 NNE 1012,4 0 12,6
15.06.2019 03:00:00 13,2 10,7 10 6 21 12 NW 1012,2 0 8,4
15.06.2019 02:00:00 15,2 9,5 14 8 18 10 N 1012,0 0 0,0
15.06.2019 01:00:00 15,4 9,7 12 7 23 13 N 1012,4 0 0,0
15.06.2019 00:00:00 15,9 9,8 13 7 21 11 NNE 1013,1 0 0,0
14.06.2019 23:00:00 16,4 11,5 15 8 21 11 NNE 1013,5 0 0,0
14.06.2019 22:00:00 17,3 11,7 15 8 25 13 NNE 1013,2 14 0,0
14.06.2019 21:00:00 19,2 13,3 17 9 25 14 N 1013,0 49 0,0
14.06.2019 20:00:00 22,1 12,3 4 2 14 8 SSE 1012,7 50 0,0
14.06.2019 19:00:00 22,1 12,6 7 4 16 9 S 1012,7 59 0,0
14.06.2019 18:00:00 22,1 12,5 15 8 23 13 SW 1013,0 43 0,0
14.06.2019 17:00:00 22,3 12,6 14 7 29 16 SSW 1013,3 59 0,0
14.06.2019 16:00:00 22,0 12,9 13 7 30 16 SW 1013,6 60 0,0
14.06.2019 15:00:00 21,3 13,0 18 10 29 15 SSW 1014,4 39 0,0
14.06.2019 14:00:00 20,0 12,2 16 9 - - SW 1014,4 13 -
14.06.2019 13:00:00 20,0 11,8 16 9 26 14 SSW 1014,3 50 0,0
14.06.2019 12:00:00 19,5 12,5 14 7 24 13 SW 1014,2 60 0,0
14.06.2019 11:00:00 18,2 12,7 10 5 16 9 S 1013,9 60 0,0
14.06.2019 10:00:00 16,0 12,3 7 4 14 7 W 1013,3 45 0,0
14.06.2019 09:00:00 13,7 11,0 9 5 17 9 SSE 1013,4 0 0,0
14.06.2019 08:00:00 13,1 10,8 7 4 13 7 SSE 1013,5 0 0,0
14.06.2019 07:00:00 12,5 10,5 6 4 12 6 S 1013,1 0 0,0
14.06.2019 06:00:00 12,0 10,3 5 3 12 6 SW 1013,0 0 0,0
14.06.2019 05:00:00 12,6 10,4 10 5 16 9 S 1012,5 0 0,0
14.06.2019 04:00:00 12,5 10,3 10 6 18 10 SSE 1012,6 0 0,0
14.06.2019 03:00:00 12,4 10,4 11 6 17 9 SSE 1012,6 0 0,0
14.06.2019 02:00:00 12,7 10,5 7 4 13 7 SSE 1013,1 0 0,0
14.06.2019 01:00:00 13,1 10,8 8 5 14 8 SSE 1013,1 0 0,0
14.06.2019 00:00:00 14,1 9,9 8 5 12 6 SSE 1013,1 0 0,0
13.06.2019 23:00:00 13,9 9,6 7 4 23 13 SSW 1012,6 0 0,0
13.06.2019 22:00:00 14,6 10,9 8 4 14 7 S 1012,1 2 0,0
13.06.2019 21:00:00 15,1 11,1 8 4 18 10 SSW 1011,3 33 0,0
13.06.2019 20:00:00 14,6 11,6 4 2 16 9 W 1010,8 36 0,0
13.06.2019 19:00:00 14,5 11,7 11 6 41 22 W 1010,8 22 1,7
13.06.2019 18:00:00 17,3 10,8 18 10 45 25 SW 1010,2 43 0,0
13.06.2019 17:00:00 15,9 10,7 28 15 48 26 SSW 1010,7 26 1,1
13.06.2019 16:00:00 14,7 11,8 12 6 35 19 WSW 1010,8 10 2,1
13.06.2019 15:00:00 14,8 10,8 18 10 - - SSW 1010,8 4 -
13.06.2019 14:00:00 16,2 10,7 31 17 - - SSW 1011,0 17 -
13.06.2019 13:00:00 15,7 9,7 28 15 47 26 SSW 1011,3 29 0,0
13.06.2019 12:00:00 16,1 9,8 23 12 46 25 SSW 1011,0 36 0,0
13.06.2019 11:00:00 15,0 9,7 26 14 44 24 SSW 1010,9 15 0,0

tt = Température de l'air
td = dewpoint
ff = Vitesse du vent
fx = gusts
dd = Direction du vent
ppp = reduced air pressure
sd = Ensoleillement
rr = Quantités de précipitations

stations d'obs. à proximité